Etusivu
METAR-TAF:

METAR-TAF

Lentoasemat :

Luulajan lentoasema

Luulaja, Ruotsi

Leveyspiiri: 65-33N, Pituuspiiri: 022-08E, korkeus merenpinnasta: 17 m

Tämänhetkinen sää

Tämä raportti tehtiin 21 minuuttia sitten, kello 19.50 UTC
Tuuli 12 kn lännestä
Lämpötila 18°C
Kosteus 45%
Ilmanpaine 1005 hPa
Näkyvyys 10 km tai enemmän

METAR: ESPA 151950Z AUTO 28012KT 9999 NCD 18/06 Q1005

Aika: 22:11 (20:11 UTC)

Sääennuste

Tämä raportti tehtiin 5 tuntia ja 41 minuuttia sitten, kello 14.30 UTC
Ennuste voimassa 15. päivästä klo 15 UTC - 15. päivään klo 18 UTC
Tuuli 7 kn lounaasta
Näkyvyys 10 km tai enemmän
ei pilviä alle 1500 m:ssä eikä cumulonimbus-pilviä

TAF: ESPA 151430Z 1515/1518 23007KT CAVOK

Säähavainnot ja -ennusteet yli 4000 lentoasemalta (METAR- ja TAF-raportit).

Käytössä olevat sääasemat on merkitty karttaan keltaisilla ja punaisilla pisteillä.

Aseta hiiri pisteen päälle nähdäksesi sääaseman nimen.

Klikkaa sitten nähdäksesi säähavainnot ja -ennusteet.

Kartan vaihtaminen: klikkaa mustalla rastilla varustettuja vihreitä pisteitä, niin voit zoomata sisään; viivalla varustettua vihreää pistettä, niin voit zoomata ulos tai vihreitä nuolia, niin pääset viereisille kartoille.


METAR-TAF: